sensor_id;sensor_type;location;lat;lon;timestamp;pressure;altitude;pressure_sealevel;temperature;humidity
11643;BME280;5877;50.930;6.918;2024-02-21T00:05:49;101783.56;;;12.54;58.68
11643;BME280;5877;50.930;6.918;2024-02-21T00:15:32;101794.22;;;12.87;57.99
11643;BME280;5877;50.930;6.918;2024-02-21T00:25:15;101781.00;;;12.74;58.43
11643;BME280;5877;50.930;6.918;2024-02-21T00:34:57;101774.16;;;12.86;58.49
11643;BME280;5877;50.930;6.918;2024-02-21T00:44:40;101767.03;;;12.80;58.41
11643;BME280;5877;50.930;6.918;2024-02-21T00:54:22;101744.59;;;12.36;59.79
11643;BME280;5877;50.930;6.918;2024-02-21T01:04:04;101744.72;;;12.69;59.36
11643;BME280;5877;50.930;6.918;2024-02-21T01:13:46;101737.56;;;12.56;59.91
11643;BME280;5877;50.930;6.918;2024-02-21T01:23:28;101729.69;;;12.63;60.04
11643;BME280;5877;50.930;6.918;2024-02-21T01:33:11;101724.13;;;12.92;58.71
11643;BME280;5877;50.930;6.918;2024-02-21T01:42:55;101710.38;;;13.17;58.67
11643;BME280;5877;50.930;6.918;2024-02-21T01:52:39;101699.34;;;12.80;60.11
11643;BME280;5877;50.930;6.918;2024-02-21T02:02:21;101685.53;;;12.65;60.02
11643;BME280;5877;50.930;6.918;2024-02-21T02:12:04;101654.13;;;12.63;60.77
11643;BME280;5877;50.930;6.918;2024-02-21T02:21:51;101625.72;;;12.39;61.28
11643;BME280;5877;50.930;6.918;2024-02-21T02:31:38;101565.69;;;12.08;61.24
11643;BME280;5877;50.930;6.918;2024-02-21T02:41:21;101610.53;;;12.41;61.17
11643;BME280;5877;50.930;6.918;2024-02-21T02:51:05;101600.47;;;12.03;61.89
11643;BME280;5877;50.930;6.918;2024-02-21T03:00:48;101601.41;;;12.37;61.32
11643;BME280;5877;50.930;6.918;2024-02-21T03:10:31;101590.28;;;12.48;60.72
11643;BME280;5877;50.930;6.918;2024-02-21T03:20:15;101566.41;;;12.56;60.11
11643;BME280;5877;50.930;6.918;2024-02-21T03:29:58;101565.16;;;12.46;60.40
11643;BME280;5877;50.930;6.918;2024-02-21T03:39:42;101553.00;;;12.45;59.87
11643;BME280;5877;50.930;6.918;2024-02-21T03:49:26;101530.28;;;12.24;60.63
11643;BME280;5877;50.930;6.918;2024-02-21T03:59:10;101536.56;;;12.23;60.42
11643;BME280;5877;50.930;6.918;2024-02-21T04:08:52;101547.72;;;12.25;60.91
11643;BME280;5877;50.930;6.918;2024-02-21T04:18:34;101544.91;;;12.40;60.68
11643;BME280;5877;50.930;6.918;2024-02-21T04:28:16;101532.72;;;12.19;61.42
11643;BME280;5877;50.930;6.918;2024-02-21T04:37:58;101508.13;;;11.79;61.95
11643;BME280;5877;50.930;6.918;2024-02-21T04:47:40;101516.69;;;12.07;61.43
11643;BME280;5877;50.930;6.918;2024-02-21T04:57:22;101524.03;;;12.31;60.72
11643;BME280;5877;50.930;6.918;2024-02-21T05:07:04;101521.41;;;12.45;59.94
11643;BME280;5877;50.930;6.918;2024-02-21T05:16:47;101506.84;;;12.62;59.22
11643;BME280;5877;50.930;6.918;2024-02-21T05:26:32;101515.06;;;11.99;60.67
11643;BME280;5877;50.930;6.918;2024-02-21T05:36:14;101496.28;;;12.29;59.29
11643;BME280;5877;50.930;6.918;2024-02-21T05:45:56;101421.31;;;11.79;59.78
11643;BME280;5877;50.930;6.918;2024-02-21T05:55:41;101488.19;;;12.63;59.37
11643;BME280;5877;50.930;6.918;2024-02-21T06:05:23;101484.13;;;12.15;60.55
11643;BME280;5877;50.930;6.918;2024-02-21T06:15:08;101481.72;;;12.46;59.84
11643;BME280;5877;50.930;6.918;2024-02-21T06:24:50;101467.09;;;11.97;61.40
11643;BME280;5877;50.930;6.918;2024-02-21T06:34:34;101452.53;;;12.01;61.61
11643;BME280;5877;50.930;6.918;2024-02-21T06:44:17;101433.41;;;11.73;62.61
11643;BME280;5877;50.930;6.918;2024-02-21T06:54:00;101422.53;;;11.83;62.45
11643;BME280;5877;50.930;6.918;2024-02-21T07:03:42;101415.28;;;12.18;60.91
11643;BME280;5877;50.930;6.918;2024-02-21T07:13:26;101417.94;;;12.31;59.96
11643;BME280;5877;50.930;6.918;2024-02-21T07:23:08;101415.69;;;12.41;60.06
11643;BME280;5877;50.930;6.918;2024-02-21T07:32:52;101406.78;;;11.96;61.02
11643;BME280;5877;50.930;6.918;2024-02-21T07:42:35;101400.28;;;11.79;61.87
11643;BME280;5877;50.930;6.918;2024-02-21T07:52:17;101366.28;;;11.84;61.29
11643;BME280;5877;50.930;6.918;2024-02-21T08:01:59;101403.94;;;11.97;61.85
11643;BME280;5877;50.930;6.918;2024-02-21T08:11:43;101381.69;;;12.20;60.66
11643;BME280;5877;50.930;6.918;2024-02-21T08:21:25;101373.38;;;12.36;60.43
11643;BME280;5877;50.930;6.918;2024-02-21T08:31:09;101297.47;;;12.20;59.61
11643;BME280;5877;50.930;6.918;2024-02-21T08:40:51;101317.09;;;12.95;57.83
11643;BME280;5877;50.930;6.918;2024-02-21T08:50:33;101324.47;;;13.11;56.78
11643;BME280;5877;50.930;6.918;2024-02-21T09:00:16;101301.06;;;13.35;55.84
11643;BME280;5877;50.930;6.918;2024-02-21T09:09:58;101280.31;;;14.56;51.66
11643;BME280;5877;50.930;6.918;2024-02-21T09:19:41;101262.72;;;15.10;49.35
11643;BME280;5877;50.930;6.918;2024-02-21T09:29:23;101247.78;;;15.04;48.30
11643;BME280;5877;50.930;6.918;2024-02-21T09:39:08;101253.72;;;14.33;49.84
11643;BME280;5877;50.930;6.918;2024-02-21T09:59:01;101213.22;;;15.29;47.66
11643;BME280;5877;50.930;6.918;2024-02-21T10:08:53;101211.06;;;15.61;46.12
11643;BME280;5877;50.930;6.918;2024-02-21T10:18:35;101212.66;;;15.38;46.61
11643;BME280;5877;50.930;6.918;2024-02-21T10:28:18;101200.13;;;15.80;45.41
11643;BME280;5877;50.930;6.918;2024-02-21T10:38:05;101180.28;;;16.18;45.06
11643;BME280;5877;50.930;6.918;2024-02-21T10:47:55;101177.78;;;16.40;44.56
11643;BME280;5877;50.930;6.918;2024-02-21T10:57:39;101146.69;;;15.95;45.03
11643;BME280;5877;50.930;6.918;2024-02-21T11:07:25;101117.19;;;15.51;45.85
11643;BME280;5877;50.930;6.918;2024-02-21T11:17:25;101082.16;;;16.86;43.68
11643;BME280;5877;50.930;6.918;2024-02-21T11:27:13;100891.28;;;15.52;44.11
11643;BME280;5877;50.930;6.918;2024-02-21T11:36:55;101024.44;;;14.94;46.91
11643;BME280;5877;50.930;6.918;2024-02-21T11:46:39;100990.63;;;15.08;46.79
11643;BME280;5877;50.930;6.918;2024-02-21T11:56:21;100969.66;;;15.30;45.96
11643;BME280;5877;50.930;6.918;2024-02-21T12:06:06;100927.41;;;15.58;45.52
11643;BME280;5877;50.930;6.918;2024-02-21T12:15:48;100878.75;;;15.48;45.55
11643;BME280;5877;50.930;6.918;2024-02-21T12:25:31;100864.13;;;15.29;46.33
11643;BME280;5877;50.930;6.918;2024-02-21T12:35:15;100833.97;;;15.91;45.40
11643;BME280;5877;50.930;6.918;2024-02-21T12:44:57;100806.31;;;14.92;47.48
11643;BME280;5877;50.930;6.918;2024-02-21T12:54:40;100693.91;;;14.33;49.01
11643;BME280;5877;50.930;6.918;2024-02-21T13:04:24;100770.34;;;16.03;45.22
11643;BME280;5877;50.930;6.918;2024-02-21T13:14:09;100689.75;;;15.22;46.96
11643;BME280;5877;50.930;6.918;2024-02-21T13:24:01;100679.66;;;16.35;44.80
11643;BME280;5877;50.930;6.918;2024-02-21T13:33:46;100689.91;;;16.53;44.45
11643;BME280;5877;50.930;6.918;2024-02-21T13:43:28;100631.19;;;15.69;45.52
11643;BME280;5877;50.930;6.918;2024-02-21T13:53:14;100655.44;;;16.04;45.47
11643;BME280;5877;50.930;6.918;2024-02-21T14:02:57;100614.78;;;16.37;44.92
11643;BME280;5877;50.930;6.918;2024-02-21T14:12:40;100600.03;;;15.54;46.14
11643;BME280;5877;50.930;6.918;2024-02-21T14:22:25;100585.69;;;15.94;45.32
11643;BME280;5877;50.930;6.918;2024-02-21T14:32:07;100569.56;;;15.73;45.98
11643;BME280;5877;50.930;6.918;2024-02-21T14:41:51;100549.34;;;15.23;46.46
11643;BME280;5877;50.930;6.918;2024-02-21T14:51:35;100539.78;;;15.39;46.31
11643;BME280;5877;50.930;6.918;2024-02-21T15:01:17;100505.78;;;15.48;46.22
11643;BME280;5877;50.930;6.918;2024-02-21T15:11:00;100491.94;;;15.89;44.22
11643;BME280;5877;50.930;6.918;2024-02-21T15:20:43;100471.00;;;15.61;41.67
11643;BME280;5877;50.930;6.918;2024-02-21T15:30:26;100443.28;;;15.42;41.49
11643;BME280;5877;50.930;6.918;2024-02-21T15:40:13;100433.31;;;15.05;41.92
11643;BME280;5877;50.930;6.918;2024-02-21T15:49:57;100363.06;;;14.32;42.01
11643;BME280;5877;50.930;6.918;2024-02-21T15:59:42;100396.97;;;14.74;41.77
11643;BME280;5877;50.930;6.918;2024-02-21T16:09:25;100381.16;;;14.40;43.89
11643;BME280;5877;50.930;6.918;2024-02-21T16:19:11;100359.16;;;14.35;43.54
11643;BME280;5877;50.930;6.918;2024-02-21T16:28:55;100330.00;;;13.91;44.46
11643;BME280;5877;50.930;6.918;2024-02-21T16:38:41;100286.03;;;13.80;45.68
11643;BME280;5877;50.930;6.918;2024-02-21T16:48:23;100284.72;;;13.32;47.93
11643;BME280;5877;50.930;6.918;2024-02-21T16:58:07;100276.94;;;13.25;49.10
11643;BME280;5877;50.930;6.918;2024-02-21T17:07:50;100278.56;;;12.98;49.67
11643;BME280;5877;50.930;6.918;2024-02-21T17:17:35;100245.97;;;12.87;50.51
11643;BME280;5877;50.930;6.918;2024-02-21T17:27:20;100268.56;;;12.72;50.58
11643;BME280;5877;50.930;6.918;2024-02-21T17:37:05;100244.69;;;12.90;51.71
11643;BME280;5877;50.930;6.918;2024-02-21T17:46:47;100226.22;;;12.33;55.66
11643;BME280;5877;50.930;6.918;2024-02-21T17:56:30;100208.19;;;12.01;58.64
11643;BME280;5877;50.930;6.918;2024-02-21T18:06:13;100171.81;;;11.40;61.93
11643;BME280;5877;50.930;6.918;2024-02-21T18:16:06;100140.19;;;11.82;64.08
11643;BME280;5877;50.930;6.918;2024-02-21T18:25:52;100091.38;;;10.92;65.00
11643;BME280;5877;50.930;6.918;2024-02-21T18:35:36;100075.63;;;11.16;67.66
11643;BME280;5877;50.930;6.918;2024-02-21T18:45:20;100064.44;;;11.32;68.80
11643;BME280;5877;50.930;6.918;2024-02-21T18:56:19;99970.59;;;10.57;70.79
11643;BME280;5877;50.930;6.918;2024-02-21T19:06:01;100061.69;;;11.50;70.97
11643;BME280;5877;50.930;6.918;2024-02-21T19:15:46;100014.19;;;11.28;71.66
11643;BME280;5877;50.930;6.918;2024-02-21T19:25:32;100052.59;;;11.69;72.65
11643;BME280;5877;50.930;6.918;2024-02-21T19:35:15;100008.22;;;11.33;76.04
11643;BME280;5877;50.930;6.918;2024-02-21T19:44:57;99939.63;;;11.06;75.53
11643;BME280;5877;50.930;6.918;2024-02-21T19:54:43;99972.78;;;11.47;76.98
11643;BME280;5877;50.930;6.918;2024-02-21T20:04:25;99941.09;;;11.14;78.79
11643;BME280;5877;50.930;6.918;2024-02-21T20:14:09;99924.31;;;11.55;76.99
11643;BME280;5877;50.930;6.918;2024-02-21T20:23:53;99907.72;;;11.26;78.04
11643;BME280;5877;50.930;6.918;2024-02-21T20:33:37;99895.81;;;11.35;77.10
11643;BME280;5877;50.930;6.918;2024-02-21T20:43:19;99875.75;;;11.29;78.42
11643;BME280;5877;50.930;6.918;2024-02-21T20:53:01;99871.16;;;11.36;79.27
11643;BME280;5877;50.930;6.918;2024-02-21T21:02:44;99788.91;;;11.07;79.71
11643;BME280;5877;50.930;6.918;2024-02-21T21:12:27;99828.59;;;11.22;81.17
11643;BME280;5877;50.930;6.918;2024-02-21T21:34:14;99798.28;;;11.31;82.32
11643;BME280;5877;50.930;6.918;2024-02-21T21:43:57;99790.13;;;11.61;81.26
11643;BME280;5877;50.930;6.918;2024-02-21T21:53:44;99773.78;;;11.43;85.04
11643;BME280;5877;50.930;6.918;2024-02-21T22:03:27;99752.81;;;11.14;85.97
11643;BME280;5877;50.930;6.918;2024-02-21T22:13:10;99729.44;;;11.63;84.85
11643;BME280;5877;50.930;6.918;2024-02-21T22:22:53;99699.38;;;10.92;88.92
11643;BME280;5877;50.930;6.918;2024-02-21T22:32:35;99701.78;;;11.10;89.97
11643;BME280;5877;50.930;6.918;2024-02-21T22:42:17;99691.69;;;11.52;88.74
11643;BME280;5877;50.930;6.918;2024-02-21T22:52:01;99593.69;;;10.51;93.65
11643;BME280;5877;50.930;6.918;2024-02-21T23:01:43;99663.59;;;11.36;91.85
11643;BME280;5877;50.930;6.918;2024-02-21T23:11:26;99611.31;;;11.01;93.27
11643;BME280;5877;50.930;6.918;2024-02-21T23:21:10;99619.09;;;11.29;94.03
11643;BME280;5877;50.930;6.918;2024-02-21T23:30:54;99604.69;;;11.32;94.25
11643;BME280;5877;50.930;6.918;2024-02-21T23:40:36;99589.50;;;11.17;97.49
11643;BME280;5877;50.930;6.918;2024-02-21T23:50:19;99566.56;;;11.29;96.64
